Zapata, TX

10:27 AM CST am 19. Dezember 2014 (GMT -0600)
Zapata | Change Station
CLOSE
Current Station
Flughafen
Location: Zapata,
Höhe: 423 ft
Wetterstationen in der Umgebung

Höhe 423 ft 26.97 °N, 99.25 °W | Updated 12 minutes ago

Bedeckt
Bedeckt
61 °F
gefühlte 61 °F
N
12
Wind Wechselnd Wind aus Nord-Nordwest
Gusts 16 mph

Heute
Max. -- | schwach -- °F
--% Regenrisiko
Gestern
Max. -- | schwach -- °F
Precip. -- inch
7:20 AM 5:47 PM
Letztes Viertel, 7% visible
Druck 30.07 inch
Sichtweite 10.0 Meilen
Wolken Bedeckt 500 ft
Taupunkt 61 °F
Feuchtigkeit 100%
Regen 0.05 inch
Schneehöhe Nicht verfügbar..
UV 1 von 12
Pollen 9.70 von 12
Luftqualität Nicht verfügbar..
Flu Activity Nicht verfügbar..
METAR KAPY 191615Z AUTO 34010G14KT 10SM OVC005 16/16 A3007 RMK AO2 T01610161

More Conditions Fewer Conditions

Druck 30.07 inch
Sichtweite 10.0 Meilen
Wolken Bedeckt 500 ft
Taupunkt 61 °F
Feuchtigkeit 100%
Regen 0.05 inch
Schneehöhe Nicht verfügbar..
UV 1 von 12
Pollen 9.70 von 12
Luftqualität Nicht verfügbar..
Flu Activity Nicht verfügbar..
METAR KAPY 191615Z AUTO 34010G14KT 10SM OVC005 16/16 A3007 RMK AO2 T01610161

More Conditions Fewer Conditions

10-Day Weather Forecast

Almanac

Astronomie

Dec. 19, 2014 Aufgang Untergang
Genaue Zeit
Bürgerliche Dämmerung
Nautische Dämmerung
Astronomische Dämmerung
Mond
Länge des sichtbaren Lichts
Tageslänge
Tomorrow will be .
, % of the Moon is Illuminated

Heutige Rekorde

State Highs State Lows

Community

WunderPhotos

Upload Photos

1,779,005 Fotos hochgeladen!

WunderBlogs® & News

Nearby

Luftqualität

  Luftqualität LQ Index Schadstoff
Not available.

Schneehöhe

Station Depth Höhe

Erdbebenaktivität

Stadt Distance Mag. Time & Date
Minimum magnitude displayed is 2.5.

küstennahe Wassertemperaturen

Ort Temperatur

Wetterstationen in der Umgebung